Storoen, Sweden

2:22 AM CEST on April 26, 2015 (GMT +0200)
INORRBOT5 | | Change Station
CLOSE
Current Station
Personal Weather Station
Location: Karlsborg, NORRBOTTEN
Elevation: 56 ft
Nearby Weather Stations

Elev 56 ft 65.80 °N, 23.30 °E | Updated 18 seconds ago

Clear
Clear
29.8 °F
Feels Like 20 °F
N
11.2
Wind Variable Wind from ENE

Today
High -- | Low -- °F
--% Chance of Precip.
Yesterday
High -- | Low -- °F
Precip. -- in
4:08 AM 8:44 PM
Waxing Crescent, 50% visible
Pressure 29.83 in
Visibility 6.2 miles
Clouds
Windchill 20 °F
Dew Point 20 °F
Humidity 68%
Rainfall -999.00 in
Snow Depth Not available.
UV Not available.
Pollen Not available.
Air Quality Not available.
Flu Activity Not available.
METAR ESPA 252350Z AUTO 06005KT 9999 NCD M01/M06 Q1010

More Conditions Fewer Conditions

Pressure 29.83 in
Visibility 6.2 miles
Clouds
Windchill 20 °F
Dew Point 20 °F
Humidity 68%
Rainfall -999.00 in
Snow Depth Not available.
UV Not available.
Pollen Not available.
Air Quality Not available.
Flu Activity Not available.
METAR ESPA 252350Z AUTO 06005KT 9999 NCD M01/M06 Q1010

More Conditions Fewer Conditions

10-Day Weather Forecast

Almanac

Astronomy

Apr. 26, 2015 Rise Set
Actual Time
Civil Twilight
Nautical Twilight
Astronomical Twilight
Moon
Length of Visible Light
Length of Day
Tomorrow will be .
, % of the Moon is Illuminated

Today's Extremes

Country Highs Country Lows

Community

WunderPhotos

Upload Photos

1,816,856 photos uploaded!

WunderBlogs® & News

Nearby

Air Quality

  Air Quality AQ Index Pollutant
Not available.

Snow Depth

Station Depth Elevation

Earthquake Activity

City Distance Mag. Time & Date
Minimum magnitude displayed is 2.5.

Coastal Water Temperatures

Place Temperature

Stations

Nearby Weather Stations

Station Location Temp. Windchill Dew Point Humidity Wind Precip. Elev Updated Type